Time;durP1;ratioP1;P1;durP2;ratioP2;P2;SDS_P1;SDS_P2;PMS_P1;PMS_P2;Temp;Humidity;BMP_temperature;BMP_pressure;BME280_temperature;BME280_humidity;BME280_pressure;Samples;Min_cycle;Max_cycle;Signal;HPM_P1;HPM_P2
2022/12/02 06:03:36;;;;;;;31.90;15.68;;;4.50;99.90;;;;;;4975032;23;20135;-81
2022/12/02 06:06:12;;;;;;;31.60;15.48;;;4.50;99.90;;;;;;4871655;29;20255;-76
2022/12/02 06:08:52;;;;;;;31.17;15.43;;;4.50;99.90;;;;;;4856446;29;20222;-82
2022/12/02 06:11:37;;;;;;;36.45;16.55;;;4.50;99.90;;;;;;4855662;29;20075;-75
2022/12/02 06:14:12;;;;;;;32.40;16.98;;;4.40;99.90;;;;;;4871315;29;20310;-76
2022/12/02 06:16:39;;;;;;;33.58;16.77;;;4.50;99.90;;;;;;4888169;29;20230;-75
2022/12/02 06:19:19;;;;;;;32.28;16.13;;;4.50;99.90;;;;;;4887502;29;20033;-75
2022/12/02 06:21:44;;;;;;;32.67;15.98;;;4.50;99.90;;;;;;4887559;29;20035;-74
2022/12/02 06:24:11;;;;;;;31.90;16.05;;;4.50;99.90;;;;;;4889993;29;20024;-73
2022/12/02 06:26:37;;;;;;;32.97;16.38;;;4.50;99.90;;;;;;4880884;29;20052;-74
2022/12/02 06:29:04;;;;;;;34.10;16.50;;;4.50;99.90;;;;;;4856621;29;20030;-81
2022/12/02 06:31:52;;;;;;;33.22;16.55;;;4.50;99.90;;;;;;4841082;29;20082;-82
2022/12/02 06:34:35;;;;;;;34.08;17.45;;;4.50;99.90;;;;;;4840892;29;20033;-80
2022/12/02 06:37:13;;;;;;;30.88;15.98;;;4.50;99.90;;;;;;4890801;29;20044;-79
2022/12/02 06:39:39;;;;;;;31.83;15.98;;;4.50;99.90;;;;;;4859821;29;20025;-77
2022/12/02 06:42:41;;;;;;;32.70;15.70;;;4.60;99.90;;;;;;4860064;29;20213;-78
2022/12/02 06:45:13;;;;;;;32.88;15.95;;;4.60;99.90;;;;;;4884622;29;20136;-79
2022/12/02 06:47:42;;;;;;;34.42;17.17;;;4.50;99.90;;;;;;4892570;29;20033;-84
2022/12/02 06:50:26;;;;;;;34.78;16.65;;;4.50;99.90;;;;;;4859630;29;20072;-79
2022/12/02 06:52:54;;;;;;;35.65;16.08;;;4.50;99.90;;;;;;4874753;29;20111;-77
2022/12/02 06:55:31;;;;;;;35.28;17.60;;;4.50;99.90;;;;;;4873886;29;20093;-78
2022/12/02 06:58:25;;;;;;;;;;;4.50;99.90;;;;;;4874845;29;20056;-78
2022/12/02 07:00:51;;;;;;;31.83;15.63;;;4.50;99.90;;;;;;4886927;29;20213;-77
2022/12/02 07:03:29;;;;;;;35.40;16.60;;;4.50;99.90;;;;;;4890026;29;20047;-80
2022/12/02 07:06:08;;;;;;;37.35;17.58;;;4.50;99.90;;;;;;4891117;29;20036;-80
2022/12/02 07:08:34;;;;;;;36.42;17.23;;;4.50;99.90;;;;;;4874356;29;20311;-79
2022/12/02 07:11:00;;;;;;;34.00;17.13;;;4.50;99.90;;;;;;4891176;29;20029;-77
2022/12/02 07:13:28;;;;;;;33.47;17.33;;;4.50;99.90;;;;;;4858247;29;20036;-78
2022/12/02 07:16:00;;;;;;;38.13;17.67;;;4.60;99.90;;;;;;4876998;29;20048;-77
2022/12/02 07:18:36;;;;;;;38.55;18.08;;;4.60;99.90;;;;;;4873058;29;20054;-77
2022/12/02 07:21:11;;;;;;;39.67;18.40;;;4.60;99.90;;;;;;4874339;29;20037;-77
2022/12/02 07:23:39;;;;;;;37.63;17.50;;;4.60;99.90;;;;;;4871131;29;20025;-76
2022/12/02 07:26:11;;;;;;;38.10;17.48;;;4.60;99.90;;;;;;4856618;29;20097;-80
2022/12/02 07:28:40;;;;;;;38.60;17.08;;;4.60;99.90;;;;;;4873492;29;20165;-80
2022/12/02 07:31:31;;;;;;;38.58;17.83;;;4.60;99.90;;;;;;4874646;29;20136;-77
2022/12/02 07:34:00;;;;;;;37.08;17.02;;;4.60;99.90;;;;;;4866339;29;20042;-78
2022/12/02 07:36:25;;;;;;;38.97;18.05;;;4.60;99.90;;;;;;4851698;29;20134;-78
2022/12/02 07:38:57;;;;;;;37.45;17.27;;;4.60;99.90;;;;;;4836506;29;20109;-78
2022/12/02 07:41:26;;;;;;;36.08;18.08;;;4.60;99.90;;;;;;4851945;29;20126;-77
2022/12/02 07:44:12;;;;;;;34.13;17.63;;;4.60;99.90;;;;;;4865464;29;20038;-78
2022/12/02 07:46:38;;;;;;;38.40;17.27;;;4.70;99.90;;;;;;4872622;29;20343;-78
2022/12/02 07:49:03;;;;;;;36.97;18.52;;;4.70;99.90;;;;;;4871862;29;20036;-79
2022/12/02 07:51:29;;;;;;;37.72;18.10;;;4.80;99.90;;;;;;4855157;29;20034;-78
2022/12/02 07:53:55;;;;;;;38.47;18.70;;;4.80;99.90;;;;;;4872654;29;20105;-81
2022/12/02 07:56:21;;;;;;;36.28;17.33;;;4.80;99.90;;;;;;4839886;29;20104;-79
2022/12/02 07:58:47;;;;;;;37.03;18.58;;;4.80;99.90;;;;;;4871833;29;20025;-77
2022/12/02 08:01:18;;;;;;;37.60;18.15;;;4.70;99.90;;;;;;4871738;29;20097;-79
2022/12/02 08:03:44;;;;;;;36.50;18.45;;;4.70;99.90;;;;;;4871875;29;20053;-78
2022/12/02 08:06:21;;;;;;;36.20;17.63;;;4.70;99.90;;;;;;4870776;29;20064;-79
2022/12/02 08:08:55;;;;;;;38.45;18.15;;;4.70;99.90;;;;;;4857553;29;20034;-79
2022/12/02 08:11:26;;;;;;;37.00;17.60;;;4.70;99.90;;;;;;4853384;29;20248;-80
2022/12/02 08:13:53;;;;;;;37.17;17.83;;;4.70;99.90;;;;;;4851976;29;20033;-79
2022/12/02 08:16:19;;;;;;;38.65;18.63;;;4.70;99.90;;;;;;4852604;29;20065;-79
2022/12/02 08:18:48;;;;;;;39.85;20.05;;;4.70;99.90;;;;;;4836712;29;20058;-77
2022/12/02 08:21:13;;;;;;;37.03;18.33;;;4.60;99.90;;;;;;4835976;29;20030;-77
2022/12/02 08:23:45;;;;;;;35.50;17.75;;;4.60;99.90;;;;;;4853235;29;20053;-76
2022/12/02 08:26:11;;;;;;;36.22;17.90;;;4.70;99.90;;;;;;4836902;29;20109;-77
2022/12/02 08:28:37;;;;;;;38.38;18.13;;;4.70;99.90;;;;;;4852591;29;20030;-77
2022/12/02 08:31:03;;;;;;;42.22;19.35;;;4.70;99.90;;;;;;4851593;29;20230;-79
2022/12/02 08:33:28;;;;;;;38.80;19.25;;;4.60;99.90;;;;;;4851668;29;20033;-78
2022/12/02 08:35:54;;;;;;;38.47;17.58;;;4.60;99.90;;;;;;4863961;29;20040;-77
2022/12/02 08:38:27;;;;;;;38.20;17.98;;;4.60;99.90;;;;;;4872466;29;20337;-79
2022/12/02 08:41:01;;;;;;;40.28;18.98;;;4.70;99.90;;;;;;4889555;29;20058;-77
2022/12/02 08:53:55;;;;;;;38.50;17.30;;;4.70;99.90;;;;;;4815676;29;20030;-79
2022/12/02 08:56:36;;;;;;;37.35;17.27;;;4.70;99.90;;;;;;4797723;29;20038;-78
2022/12/02 08:59:04;;;;;;;35.30;16.85;;;4.60;99.90;;;;;;4814100;29;20070;-78
2022/12/02 09:02:20;;;;;;;37.15;17.08;;;4.70;99.90;;;;;;4816426;29;20067;-77
2022/12/02 09:04:49;;;;;;;37.22;18.15;;;4.60;99.90;;;;;;4831014;29;20362;-77
2022/12/02 09:07:21;;;;;;;39.30;18.15;;;4.70;99.90;;;;;;4813357;29;20075;-80
2022/12/02 09:10:03;;;;;;;38.67;17.03;;;4.60;99.90;;;;;;4798610;29;20037;-78
2022/12/02 09:12:38;;;;;;;36.20;17.80;;;4.70;99.90;;;;;;4798988;29;20091;-77
2022/12/02 09:15:10;;;;;;;34.22;16.42;;;4.80;99.90;;;;;;4799056;29;20113;-79
2022/12/02 09:17:36;;;;;;;33.85;16.77;;;4.80;99.90;;;;;;4797925;29;20153;-78
2022/12/02 09:20:03;;;;;;;32.53;16.02;;;4.80;99.90;;;;;;4813602;29;20563;-78
2022/12/02 09:22:29;;;;;;;33.15;16.13;;;4.80;99.90;;;;;;4812438;29;20110;-78
2022/12/02 09:24:55;;;;;;;33.40;16.10;;;4.80;99.90;;;;;;4798560;29;20034;-79
2022/12/02 09:27:24;;;;;;;31.05;15.10;;;4.80;99.90;;;;;;4838361;29;20181;-78
2022/12/02 09:29:50;;;;;;;34.22;16.98;;;4.80;99.90;;;;;;4854833;29;20068;-78
2022/12/02 09:32:18;;;;;;;30.55;15.65;;;4.90;99.90;;;;;;4839718;29;20029;-81
2022/12/02 09:34:56;;;;;;;29.42;14.00;;;4.90;99.90;;;;;;4841130;29;20037;-79
2022/12/02 09:37:22;;;;;;;25.80;14.90;;;4.90;99.90;;;;;;4871044;29;20303;-79
2022/12/02 09:43:43;;;;;;;27.00;13.88;;;4.90;99.90;;;;;;4758935;30;20146;-78
2022/12/02 09:46:44;;;;;;;27.85;13.65;;;4.90;99.90;;;;;;4746330;30;20136;-80
2022/12/02 09:49:37;;;;;;;27.45;13.50;;;4.80;99.90;;;;;;4761579;30;20282;-79
2022/12/02 09:52:50;;;;;;;26.20;12.65;;;4.90;99.90;;;;;;4789168;30;20114;-80
2022/12/02 09:55:21;;;;;;;27.52;13.35;;;4.90;99.90;;;;;;4793426;30;20096;-80
2022/12/02 09:57:50;;;;;;;23.58;12.82;;;4.90;99.90;;;;;;4779220;30;20323;-78
2022/12/02 10:00:19;;;;;;;21.75;11.57;;;4.90;99.90;;;;;;4797518;30;20035;-79
2022/12/02 10:02:54;;;;;;;23.65;12.18;;;4.80;99.90;;;;;;4800455;29;20051;-78
2022/12/02 10:05:55;;;;;;;19.83;10.85;;;4.80;99.90;;;;;;4799798;29;20059;-78
2022/12/02 10:08:24;;;;;;;23.67;11.45;;;4.80;99.90;;;;;;4785873;29;20035;-78
2022/12/02 10:11:01;;;;;;;22.45;11.07;;;4.70;99.90;;;;;;4778438;30;20108;-76
2022/12/02 10:13:55;;;;;;;20.08;11.30;;;4.80;99.90;;;;;;4763966;30;20043;-77
2022/12/02 10:16:21;;;;;;;22.88;10.48;;;4.80;99.90;;;;;;4778650;30;20068;-78
2022/12/02 10:18:49;;;;;;;20.87;11.30;;;4.80;99.90;;;;;;4799949;29;20074;-79
2022/12/02 10:21:23;;;;;;;22.52;11.35;;;4.80;99.90;;;;;;4855619;29;20437;-78
2022/12/02 10:24:12;;;;;;;20.48;10.68;;;4.80;99.90;;;;;;4855472;29;20037;-78
2022/12/02 10:26:59;;;;;;;;;;;4.80;99.90;;;;;;4856285;29;20101;-80
2022/12/02 10:29:44;;;;;;;17.52;9.88;;;4.90;99.90;;;;;;4861059;29;19947;-79
2022/12/02 10:32:33;;;;;;;21.88;10.20;;;4.90;99.90;;;;;;4877791;29;20050;-79
2022/12/02 10:35:10;;;;;;;19.60;9.68;;;4.80;99.90;;;;;;4873335;29;20037;-79
2022/12/02 10:37:38;;;;;;;17.65;9.60;;;4.80;99.90;;;;;;4881846;29;20056;-79
2022/12/02 10:40:26;;;;;;;21.08;10.70;;;4.80;99.90;;;;;;4890120;29;20045;-78
2022/12/02 10:43:16;;;;;;;19.38;9.75;;;4.80;99.90;;;;;;4874329;29;20334;-81
2022/12/02 10:45:57;;;;;;;18.13;10.02;;;4.80;99.90;;;;;;4858609;29;20033;-79
2022/12/02 10:48:26;;;;;;;16.45;9.13;;;4.80;99.90;;;;;;4890807;29;20017;-80
2022/12/02 10:50:51;;;;;;;19.48;10.05;;;4.80;99.90;;;;;;4879819;29;20139;-78
2022/12/02 10:53:18;;;;;;;17.15;9.07;;;4.80;99.90;;;;;;4909143;29;20326;-78
2022/12/02 10:55:45;;;;;;;16.67;8.93;;;4.80;99.90;;;;;;4893056;29;20047;-78
2022/12/02 10:58:31;;;;;;;18.52;9.45;;;4.80;99.90;;;;;;4893573;29;20031;-78
2022/12/02 11:01:18;;;;;;;16.60;9.13;;;4.80;99.90;;;;;;4909593;29;20041;-79
2022/12/02 11:03:56;;;;;;;16.67;8.68;;;4.80;99.90;;;;;;4894291;29;20059;-79
2022/12/02 11:06:22;;;;;;;17.33;9.05;;;4.80;99.90;;;;;;4908889;29;20044;-79
2022/12/02 11:12:58;;;;;;;15.50;7.90;;;4.80;99.90;;;;;;4903921;29;20131;-78
2022/12/02 11:15:54;;;;;;;15.07;8.45;;;4.80;99.90;;;;;;4895028;29;20286;-78
2022/12/02 11:18:47;;;;;;;16.90;8.65;;;4.80;99.90;;;;;;4873669;29;20318;-78
2022/12/02 11:21:13;;;;;;;16.95;8.48;;;4.90;99.90;;;;;;4870075;29;20038;-79
2022/12/02 11:23:39;;;;;;;14.48;7.70;;;4.90;99.90;;;;;;4839555;29;20109;-80
2022/12/02 11:26:12;;;;;;;13.68;7.60;;;4.90;99.90;;;;;;4871794;29;20053;-81
2022/12/02 11:29:04;;;;;;;15.73;7.53;;;4.90;99.90;;;;;;4858405;29;20036;-79
2022/12/02 11:31:31;;;;;;;15.48;8.57;;;4.90;99.90;;;;;;4860000;29;20077;-78
2022/12/02 11:34:41;;;;;;;16.48;8.73;;;4.80;99.90;;;;;;4889985;29;20042;-78
2022/12/02 11:37:45;;;;;;;16.02;8.07;;;4.80;99.90;;;;;;4888804;29;20033;-79
2022/12/02 11:40:10;;;;;;;15.63;8.02;;;4.90;99.90;;;;;;4908275;29;20056;-79
2022/12/02 11:42:41;;;;;;;16.65;8.15;;;4.80;99.90;;;;;;4907863;29;20040;-81
2022/12/02 11:45:46;;;;;;;14.68;7.88;;;4.80;99.90;;;;;;4908166;29;20032;-80
2022/12/02 11:48:21;;;;;;;14.55;8.05;;;4.80;99.90;;;;;;4888679;29;20074;-79
2022/12/02 11:50:55;;;;;;;12.57;7.22;;;4.80;99.90;;;;;;4875743;29;20112;-80
2022/12/02 11:53:48;;;;;;;13.25;7.43;;;4.80;99.90;;;;;;4907541;29;20084;-79
2022/12/02 11:56:20;;;;;;;11.60;6.45;;;4.80;99.90;;;;;;4908096;29;20036;-80
2022/12/02 11:58:50;;;;;;;13.05;6.78;;;4.90;99.90;;;;;;4871161;29;20045;-78
2022/12/02 12:01:38;;;;;;;11.65;6.40;;;4.80;99.90;;;;;;4874886;29;20033;-79
2022/12/02 12:04:21;;;;;;;12.25;6.82;;;4.90;99.90;;;;;;4890702;29;20287;-78
2022/12/02 12:06:59;;;;;;;11.40;7.07;;;4.90;99.90;;;;;;4907377;29;20079;-77
2022/12/02 12:09:26;;;;;;;12.13;7.20;;;5.00;99.90;;;;;;4907167;29;20024;-79
2022/12/02 12:12:13;;;;;;;12.68;7.18;;;5.00;99.90;;;;;;4906511;29;20043;-79
2022/12/02 12:14:58;;;;;;;14.32;7.22;;;5.00;99.90;;;;;;4888536;29;20215;-79
2022/12/02 12:17:45;;;;;;;13.35;6.95;;;5.00;99.90;;;;;;4871901;29;20073;-79
2022/12/02 12:20:21;;;;;;;13.75;7.13;;;5.00;99.90;;;;;;4872056;29;20314;-79
2022/12/02 12:22:47;;;;;;;11.15;6.15;;;5.00;99.90;;;;;;4872016;29;20108;-80
2022/12/02 12:25:43;;;;;;;10.70;6.40;;;4.90;99.90;;;;;;4856072;29;20025;-79
2022/12/02 12:28:33;;;;;;;9.85;6.45;;;4.90;99.90;;;;;;4874233;29;20057;-78
2022/12/02 12:31:04;;;;;;;12.40;6.38;;;4.80;99.90;;;;;;4888242;29;20032;-79
2022/12/02 12:33:30;;;;;;;10.95;6.28;;;4.80;99.90;;;;;;4872598;29;20310;-79
2022/12/02 12:36:06;;;;;;;12.27;6.50;;;4.80;99.90;;;;;;4888920;29;20038;-79
2022/12/02 12:38:31;;;;;;;11.85;6.47;;;4.80;99.90;;;;;;4889871;29;20530;-79
2022/12/02 12:41:00;;;;;;;11.40;6.10;;;4.90;99.90;;;;;;4908540;29;20088;-79
2022/12/02 12:43:28;;;;;;;11.20;6.78;;;4.90;99.90;;;;;;4884117;29;20040;-80
2022/12/02 12:45:57;;;;;;;11.98;6.65;;;4.90;99.90;;;;;;4894142;29;20045;-79
2022/12/02 12:48:34;;;;;;;10.15;5.88;;;4.80;99.90;;;;;;4854156;29;20041;-79
2022/12/02 12:50:59;;;;;;;9.82;5.95;;;4.80;99.90;;;;;;4837974;29;20037;-77
2022/12/02 12:53:28;;;;;;;10.85;6.43;;;4.80;99.90;;;;;;4854454;29;20151;-79
2022/12/02 12:55:56;;;;;;;11.15;6.10;;;4.80;99.90;;;;;;4858070;29;20045;-77
2022/12/02 12:58:22;;;;;;;13.27;6.97;;;4.80;99.90;;;;;;4858611;29;20023;-76
2022/12/02 13:00:48;;;;;;;12.68;6.95;;;4.80;99.90;;;;;;4841805;29;20056;-76
2022/12/02 13:03:14;;;;;;;13.60;6.95;;;4.70;99.90;;;;;;4902272;29;20066;-78
2022/12/02 13:05:40;;;;;;;10.63;5.93;;;4.80;99.90;;;;;;4856570;29;20034;-77
2022/12/02 13:08:06;;;;;;;12.57;6.93;;;4.80;99.90;;;;;;4869307;29;20041;-77
2022/12/02 13:10:32;;;;;;;9.77;5.28;;;4.80;99.90;;;;;;4869091;29;20082;-79
2022/12/02 13:12:59;;;;;;;9.70;5.60;;;4.80;99.90;;;;;;4869665;29;20061;-77
2022/12/02 13:15:25;;;;;;;8.98;5.45;;;4.80;99.90;;;;;;4852827;29;20204;-79
2022/12/02 13:17:51;;;;;;;11.80;6.07;;;4.70;99.90;;;;;;4852415;29;20036;-79
2022/12/02 13:20:19;;;;;;;9.65;6.03;;;4.70;99.90;;;;;;4852584;29;20078;-78
2022/12/02 13:22:48;;;;;;;9.50;5.55;;;4.70;99.90;;;;;;4851659;29;20053;-79
2022/12/02 13:25:17;;;;;;;8.70;5.22;;;4.70;99.90;;;;;;4875719;29;20050;-79
2022/12/02 13:27:49;;;;;;;10.30;5.72;;;4.70;99.90;;;;;;4869147;29;20045;-81
2022/12/02 13:30:18;;;;;;;9.07;5.32;;;4.70;99.90;;;;;;4851917;29;20029;-81
2022/12/02 13:32:45;;;;;;;9.35;5.25;;;4.60;99.90;;;;;;4852501;29;20104;-77
2022/12/02 13:35:12;;;;;;;8.35;4.75;;;4.70;99.90;;;;;;4853894;29;20113;-78
2022/12/02 13:37:38;;;;;;;9.05;5.60;;;4.60;99.90;;;;;;4868488;29;20060;-78
2022/12/02 13:40:05;;;;;;;10.10;5.25;;;4.60;99.90;;;;;;4868664;29;20049;-77
2022/12/02 13:42:31;;;;;;;8.53;5.20;;;4.60;99.90;;;;;;4852008;29;20310;-78
2022/12/02 13:44:57;;;;;;;9.63;5.55;;;4.60;99.90;;;;;;4868887;29;20108;-79
2022/12/02 13:47:23;;;;;;;8.63;5.32;;;4.50;99.90;;;;;;4859574;29;20368;-79
2022/12/02 13:49:49;;;;;;;9.80;5.20;;;4.60;99.90;;;;;;4868500;29;20045;-78
2022/12/02 13:52:15;;;;;;;10.60;5.78;;;4.60;99.90;;;;;;4852623;29;20219;-78
2022/12/02 13:54:41;;;;;;;8.30;5.18;;;4.50;99.90;;;;;;4868741;29;20036;-78
2022/12/02 13:57:07;;;;;;;9.60;5.25;;;4.60;99.90;;;;;;4869239;29;20228;-78
2022/12/02 13:59:32;;;;;;;9.40;4.82;;;4.60;99.90;;;;;;4869005;29;20143;-77
2022/12/02 14:01:58;;;;;;;8.43;5.40;;;4.60;99.90;;;;;;4868926;29;20058;-79
2022/12/02 14:04:24;;;;;;;7.35;4.28;;;4.60;99.90;;;;;;4899369;29;20056;-78
2022/12/02 14:06:50;;;;;;;8.35;5.18;;;4.60;99.90;;;;;;4886904;29;20405;-78
2022/12/02 14:09:16;;;;;;;8.73;4.85;;;4.50;99.90;;;;;;4901510;29;20033;-78
2022/12/02 14:11:42;;;;;;;8.20;4.85;;;4.50;99.90;;;;;;4886985;29;20061;-78
2022/12/02 14:14:08;;;;;;;9.38;4.93;;;4.50;99.90;;;;;;4875232;29;20331;-78
2022/12/02 14:16:34;;;;;;;7.97;5.05;;;4.40;99.90;;;;;;4851854;29;20041;-78
2022/12/02 14:19:00;;;;;;;9.60;5.35;;;4.40;99.90;;;;;;4852271;29;20325;-78
2022/12/02 14:21:26;;;;;;;9.52;5.80;;;4.50;99.90;;;;;;4884263;29;20085;-80
2022/12/02 14:23:52;;;;;;;12.10;6.13;;;4.50;99.90;;;;;;4887317;29;20053;-76
2022/12/02 14:26:18;;;;;;;9.05;5.28;;;4.50;99.90;;;;;;4871530;29;20041;-76
2022/12/02 14:28:44;;;;;;;9.52;5.80;;;4.50;99.90;;;;;;4887815;29;20032;-76
2022/12/02 14:31:10;;;;;;;9.68;5.93;;;4.40;99.90;;;;;;4888148;29;20358;-77
2022/12/02 14:33:35;;;;;;;9.60;5.00;;;4.40;99.90;;;;;;4886792;29;20029;-76
2022/12/02 14:36:02;;;;;;;8.05;5.13;;;4.40;99.90;;;;;;4863024;29;20037;-77
2022/12/02 14:38:27;;;;;;;9.18;5.25;;;4.40;99.90;;;;;;4852756;29;20033;-76
2022/12/02 14:40:53;;;;;;;9.30;5.22;;;4.30;99.90;;;;;;4868307;29;20300;-76
2022/12/02 14:43:19;;;;;;;9.70;5.68;;;4.30;99.90;;;;;;4868906;29;20096;-75
2022/12/02 14:45:45;;;;;;;8.27;5.47;;;4.30;99.90;;;;;;4879448;29;20033;-76
2022/12/02 14:48:10;;;;;;;10.35;6.10;;;4.30;99.90;;;;;;4891540;29;20040;-78
2022/12/02 14:50:36;;;;;;;8.52;5.38;;;4.40;99.90;;;;;;4873103;29;20032;-76
2022/12/02 14:53:02;;;;;;;8.27;5.40;;;4.40;99.90;;;;;;4889862;29;20033;-77
2022/12/02 14:55:28;;;;;;;10.57;5.90;;;4.40;99.90;;;;;;4873518;29;20256;-77
2022/12/02 14:57:54;;;;;;;9.43;5.65;;;4.40;99.90;;;;;;4904374;29;20112;-76
2022/12/02 15:00:20;;;;;;;9.38;5.82;;;4.30;99.90;;;;;;4891523;29;20040;-77
2022/12/02 15:02:46;;;;;;;10.35;6.38;;;4.30;99.90;;;;;;4890340;29;20346;-76
2022/12/02 15:05:18;;;;;;;10.40;5.63;;;4.30;99.90;;;;;;4874127;29;20036;-78
2022/12/02 15:07:44;;;;;;;8.70;5.88;;;4.30;99.90;;;;;;4905432;29;20048;-78
2022/12/02 15:10:10;;;;;;;9.98;5.95;;;4.30;99.90;;;;;;4891631;29;20037;-78
2022/12/02 15:12:36;;;;;;;10.50;6.25;;;4.30;99.90;;;;;;4890072;29;20092;-77
2022/12/02 15:15:03;;;;;;;10.77;6.25;;;4.30;99.90;;;;;;4889742;29;20036;-78
2022/12/02 15:17:28;;;;;;;10.07;6.22;;;4.30;99.90;;;;;;4890676;29;20111;-77
2022/12/02 15:19:55;;;;;;;11.75;6.03;;;4.30;99.90;;;;;;4874268;29;20164;-77
2022/12/02 15:22:22;;;;;;;9.73;6.65;;;4.40;99.90;;;;;;4890751;29;20081;-78
2022/12/02 15:24:48;;;;;;;11.13;6.75;;;4.30;99.90;;;;;;4889768;29;20112;-78
2022/12/02 15:27:14;;;;;;;10.32;6.53;;;4.30;99.90;;;;;;4890976;29;20049;-77
2022/12/02 15:29:40;;;;;;;11.10;6.40;;;4.30;99.90;;;;;;4873509;29;20330;-77
2022/12/02 15:32:06;;;;;;;10.25;5.93;;;4.30;99.90;;;;;;4872388;29;20093;-76
2022/12/02 15:34:32;;;;;;;11.23;6.43;;;4.30;99.90;;;;;;4869369;29;20032;-77
2022/12/02 15:36:57;;;;;;;11.25;6.72;;;4.20;99.90;;;;;;4888728;29;20033;-76
2022/12/02 15:39:23;;;;;;;11.85;6.30;;;4.20;99.90;;;;;;4873157;29;20105;-76
2022/12/02 15:41:54;;;;;;;10.57;5.90;;;4.20;99.90;;;;;;4870714;29;20072;-78
2022/12/02 15:44:20;;;;;;;12.05;6.93;;;4.20;99.90;;;;;;4871383;29;20081;-77
2022/12/02 15:46:46;;;;;;;11.00;6.55;;;4.20;99.90;;;;;;4887976;29;20112;-77
2022/12/02 15:49:11;;;;;;;11.82;6.55;;;4.20;99.90;;;;;;4870342;29;20371;-77
2022/12/02 15:51:37;;;;;;;10.68;6.78;;;4.20;99.90;;;;;;4887875;29;20104;-77
2022/12/02 15:54:03;;;;;;;10.07;6.10;;;4.20;99.90;;;;;;4892725;29;20029;-77
2022/12/02 15:56:31;;;;;;;11.00;6.53;;;4.20;99.90;;;;;;4888068;29;20060;-77
2022/12/02 15:59:00;;;;;;;;;;;4.20;99.90;;;;;;4857903;29;20037;-77
2022/12/02 16:01:26;;;;;;;11.25;6.53;;;4.20;99.90;;;;;;4873423;29;20081;-77
2022/12/02 16:03:52;;;;;;;11.50;6.88;;;4.20;99.90;;;;;;4889614;29;20341;-78
2022/12/02 16:06:18;;;;;;;10.13;6.25;;;4.20;99.90;;;;;;4890662;29;20041;-78
2022/12/02 16:08:44;;;;;;;10.25;6.03;;;4.20;99.90;;;;;;4889853;29;20044;-78
2022/12/02 16:11:10;;;;;;;10.93;6.53;;;4.20;99.90;;;;;;4891327;29;20025;-77
2022/12/02 16:13:37;;;;;;;12.40;6.53;;;4.10;99.90;;;;;;4867152;29;20323;-78
2022/12/02 16:16:04;;;;;;;13.32;6.82;;;4.10;99.90;;;;;;4871389;29;20026;-78
2022/12/02 16:18:32;;;;;;;12.35;7.05;;;4.10;99.90;;;;;;4870729;29;20097;-78
2022/12/02 16:20:58;;;;;;;11.93;7.18;;;4.10;99.90;;;;;;4869252;29;20372;-78
2022/12/02 16:23:27;;;;;;;13.18;6.95;;;4.10;99.90;;;;;;4853832;29;20033;-78
2022/12/02 16:25:52;;;;;;;11.60;7.28;;;4.10;99.90;;;;;;4853023;29;20034;-79
2022/12/02 16:28:21;;;;;;;11.52;7.38;;;4.10;99.90;;;;;;4870062;29;20025;-78
2022/12/02 16:30:49;;;;;;;;;;;4.10;99.90;;;;;;4870077;29;20032;-79
2022/12/02 16:33:15;;;;;;;11.77;7.20;;;4.20;99.90;;;;;;4869706;29;19912;-78
2022/12/02 16:35:40;;;;;;;12.15;7.45;;;4.20;99.90;;;;;;4869776;29;20085;-78
2022/12/02 16:38:06;;;;;;;12.10;7.38;;;4.20;99.90;;;;;;4854123;29;20367;-78
2022/12/02 16:40:32;;;;;;;12.50;7.43;;;4.10;99.90;;;;;;4874963;29;20092;-78
2022/12/02 16:43:00;;;;;;;12.77;7.50;;;4.10;99.90;;;;;;4846313;29;20066;-78
2022/12/02 16:45:26;;;;;;;14.07;8.23;;;4.10;99.90;;;;;;4870446;29;20026;-78
2022/12/02 16:47:52;;;;;;;13.75;8.25;;;4.10;99.90;;;;;;4844278;29;20033;-80
2022/12/02 16:50:21;;;;;;;12.63;8.40;;;4.10;99.90;;;;;;4862322;29;20053;-78
2022/12/02 16:52:47;;;;;;;13.18;8.10;;;4.10;99.90;;;;;;4859245;29;20026;-79
2022/12/02 16:55:13;;;;;;;13.15;7.90;;;4.10;99.90;;;;;;4841108;29;20080;-78
2022/12/02 16:57:42;;;;;;;13.35;8.20;;;4.10;99.90;;;;;;4838705;29;20062;-80
2022/12/02 17:03:14;;;;;;;12.65;7.88;;;4.10;99.90;;;;;;4860066;29;20053;-78
2022/12/02 17:05:42;;;;;;;13.35;7.80;;;4.00;99.90;;;;;;4869770;29;20037;-79
2022/12/02 17:08:33;;;;;;;14.00;8.32;;;4.10;99.90;;;;;;4855836;29;20052;-79
2022/12/02 17:10:58;;;;;;;13.88;7.95;;;4.00;99.90;;;;;;4868570;29;20323;-79
2022/12/02 17:13:36;;;;;;;14.90;8.18;;;4.00;99.90;;;;;;4874196;29;20089;-79
2022/12/02 17:16:11;;;;;;;15.25;8.32;;;4.00;99.90;;;;;;4887293;29;20235;-78
2022/12/02 17:18:36;;;;;;;13.05;7.75;;;4.10;99.90;;;;;;4871542;29;20542;-78
2022/12/02 17:21:32;;;;;;;14.23;7.43;;;4.10;99.90;;;;;;4870352;29;20112;-78
2022/12/02 17:23:58;;;;;;;14.35;8.57;;;4.10;99.90;;;;;;4855697;29;20097;-75
2022/12/02 17:26:27;;;;;;;12.98;8.15;;;4.10;99.90;;;;;;4871077;29;20033;-80
2022/12/02 17:28:59;;;;;;;14.00;9.23;;;4.10;99.90;;;;;;4855066;29;20366;-80
2022/12/02 17:31:25;;;;;;;14.57;8.55;;;4.10;99.90;;;;;;4855178;29;20302;-78
2022/12/02 17:33:57;;;;;;;14.43;8.63;;;4.10;99.90;;;;;;4870308;29;20037;-78
2022/12/02 17:36:26;;;;;;;14.43;8.40;;;4.10;99.90;;;;;;4881070;29;20033;-80
2022/12/02 17:38:53;;;;;;;12.95;8.13;;;4.10;99.90;;;;;;4883854;29;20041;-78
2022/12/02 17:41:46;;;;;;;13.23;8.07;;;4.10;99.90;;;;;;4874645;29;20028;-77
2022/12/02 17:44:26;;;;;;;14.82;7.80;;;4.10;99.90;;;;;;4906228;29;20330;-77
2022/12/02 17:46:52;;;;;;;11.57;6.97;;;4.10;99.90;;;;;;4889075;29;20117;-76
2022/12/02 17:49:23;;;;;;;11.68;7.20;;;4.10;99.90;;;;;;4889111;29;20277;-80
2022/12/02 17:51:55;;;;;;;12.18;7.00;;;4.10;99.90;;;;;;4873531;29;20199;-78
2022/12/02 17:54:22;;;;;;;12.55;7.68;;;4.10;99.90;;;;;;4888877;29;20100;-79
2022/12/02 17:56:49;;;;;;;11.98;7.30;;;4.10;99.90;;;;;;4890118;29;20064;-77
2022/12/02 17:59:18;;;;;;;9.75;6.50;;;4.10;99.90;;;;;;4906183;29;20047;-78
2022/12/02 18:01:43;;;;;;;10.55;6.97;;;4.10;99.90;;;;;;4905921;29;20040;-78
2022/12/02 18:04:09;;;;;;;13.07;8.35;;;4.00;99.90;;;;;;4894617;29;20068;-77
2022/12/02 18:06:36;;;;;;;10.48;6.45;;;4.00;99.90;;;;;;4855517;29;20087;-76
2022/12/02 18:09:05;;;;;;;13.35;7.97;;;4.00;99.90;;;;;;4870205;29;20032;-78
2022/12/02 18:11:39;;;;;;;14.07;7.35;;;4.00;99.90;;;;;;4871045;29;20029;-76
2022/12/02 18:14:14;;;;;;;10.80;7.15;;;4.00;99.90;;;;;;4876245;29;20041;-78
2022/12/02 18:16:40;;;;;;;12.05;6.88;;;4.00;99.90;;;;;;4868399;29;20067;-76
2022/12/02 18:19:09;;;;;;;11.32;7.50;;;4.00;99.90;;;;;;4868462;29;20045;-77
2022/12/02 18:21:35;;;;;;;13.95;7.65;;;4.00;99.90;;;;;;4855935;29;20040;-77
2022/12/02 18:24:06;;;;;;;13.80;8.55;;;4.00;99.90;;;;;;4855491;29;20299;-77
2022/12/02 18:26:32;;;;;;;12.05;7.40;;;4.00;99.90;;;;;;4855442;29;20227;-76
2022/12/02 18:28:58;;;;;;;12.25;7.25;;;4.00;99.90;;;;;;4856059;29;20081;-78
2022/12/02 18:31:59;;;;;;;11.70;6.82;;;4.00;99.90;;;;;;4873063;29;20026;-81
2022/12/02 18:34:35;;;;;;;12.43;7.03;;;4.00;99.90;;;;;;4795658;29;20334;-80
2022/12/02 18:37:11;;;;;;;11.35;6.85;;;4.00;99.90;;;;;;4844497;29;20274;-81
2022/12/02 18:39:43;;;;;;;11.73;6.65;;;4.00;99.90;;;;;;4859211;29;20050;-81
2022/12/02 18:42:14;;;;;;;9.05;5.90;;;4.00;99.90;;;;;;4856518;29;20025;-80
2022/12/02 18:48:46;;;;;;;9.98;6.18;;;4.10;99.90;;;;;;4799417;30;20115;-79
2022/12/02 18:52:13;;;;;;;11.70;7.07;;;4.10;99.90;;;;;;4785976;30;20374;-80
2022/12/02 18:54:50;;;;;;;12.13;7.63;;;4.10;99.90;;;;;;4766340;30;20042;-81
2022/12/02 18:57:27;;;;;;;13.68;7.72;;;4.10;99.90;;;;;;4766455;30;20054;-80
2022/12/02 18:59:58;;;;;;;10.15;6.10;;;4.10;99.90;;;;;;4765302;30;20039;-81
2022/12/02 19:02:47;;;;;;;9.98;6.53;;;4.10;99.90;;;;;;4785830;30;20050;-81
2022/12/02 19:05:40;;;;;;;9.45;5.78;;;4.10;99.90;;;;;;4751789;30;20301;-79
2022/12/02 19:08:15;;;;;;;10.90;6.32;;;4.00;99.90;;;;;;4786373;30;20055;-82
2022/12/02 19:10:43;;;;;;;10.60;6.13;;;4.00;99.90;;;;;;4776990;30;20123;-79
2022/12/02 19:13:09;;;;;;;10.25;5.75;;;4.00;99.90;;;;;;4792393;30;20135;-80
2022/12/02 19:15:50;;;;;;;7.80;5.05;;;4.00;99.90;;;;;;4811050;29;20224;-79
2022/12/02 19:18:16;;;;;;;9.07;5.45;;;4.00;99.90;;;;;;4815816;29;20070;-79
2022/12/02 19:21:10;;;;;;;10.20;5.53;;;4.00;99.90;;;;;;4819256;29;20041;-81
2022/12/02 19:23:51;;;;;;;9.18;5.65;;;4.00;99.90;;;;;;4833004;29;20074;-80
2022/12/02 19:26:26;;;;;;;9.55;5.57;;;4.00;99.90;;;;;;4832558;29;20123;-77
2022/12/02 19:29:01;;;;;;;9.10;5.82;;;4.00;99.90;;;;;;4816917;29;20147;-78
2022/12/02 19:31:36;;;;;;;8.65;5.15;;;4.00;99.90;;;;;;4858441;29;20068;-78
2022/12/02 19:34:01;;;;;;;9.20;6.28;;;4.00;99.90;;;;;;4872766;29;20369;-78
2022/12/02 19:36:27;;;;;;;9.45;5.82;;;4.00;99.90;;;;;;4899072;29;20048;-78
2022/12/02 19:38:53;;;;;;;9.43;5.95;;;4.00;99.90;;;;;;4891408;29;20040;-77